Time;durP1;ratioP1;P1;durP2;ratioP2;P2;SDS_P1;SDS_P2;PMS_P1;PMS_P2;Temp;Humidity;BMP_temperature;BMP_pressure;BME280_temperature;BME280_humidity;BME280_pressure;Samples;Min_cycle;Max_cycle;Signal;HPM_P1;HPM_P2
2022/10/30 00:00:22;;;;;;;;;;;;;;;;;;4964354;28;19964;-56
2022/10/30 00:02:47;;;;;;;;;;;;;;;;;;4967543;28;19926;-55
2022/10/30 00:05:13;;;;;;;;;;;;;;;;;;4966893;28;19922;-56
2022/10/30 00:07:38;;;;;;;;;;;;;;;;;;4962364;28;20454;-57
2022/10/30 00:10:03;;;;;;;;;;;;;;;;;;4969496;28;19918;-56
2022/10/30 00:12:29;;;;;;;;;;;;;;;;;;4964505;28;19918;-56
2022/10/30 00:14:54;;;;;;;;;;;;;;;;;;4965844;28;20385;-56
2022/10/30 00:17:19;;;;;;;;;;;;;;;;;;4963506;28;20141;-56
2022/10/30 00:19:44;;;;;;;;;;;;;;;;;;4963440;28;20359;-56
2022/10/30 00:22:10;;;;;;;;;;;;;;;;;;4963746;28;19926;-55
2022/10/30 00:24:35;;;;;;;;;;;;;;;;;;4963021;28;19921;-56
2022/10/30 00:27:00;;;;;;;;;;;;;;;;;;4958323;28;19918;-56
2022/10/30 00:29:25;;;;;;;;;;;;;;;;;;4957107;28;20388;-55
2022/10/30 00:31:51;;;;;;;;;;;;;;;;;;4964588;28;19924;-56
2022/10/30 00:34:16;;;;;;;;;;;;;;;;;;4964118;28;20036;-56
2022/10/30 00:36:41;;;;;;;;;;;;;;;;;;4962758;28;19922;-56
2022/10/30 00:39:07;;;;;;;;;;;;;;;;;;4962943;28;19947;-56
2022/10/30 00:41:32;;;;;;;;;;;;;;;;;;4962388;28;19926;-56
2022/10/30 00:43:57;;;;;;;;;;;;;;;;;;4959143;28;19919;-56
2022/10/30 00:46:31;;;;;;;;;;;;;;;;;;4963139;28;19925;-55
2022/10/30 00:48:59;;;;;;;;;;;;;;;;;;4962913;28;19918;-56
2022/10/30 00:51:26;;;;;;;;;;;;;;;;;;4960989;28;20408;-56
2022/10/30 00:53:52;;;;;;;;;;;;;;;;;;4971287;28;19917;-56
2022/10/30 00:56:19;;;;;;;;;;;;;;;;;;4964670;28;19918;-56
2022/10/30 00:58:47;;;;;;;;;;;;;;;;;;4967257;28;19963;-55
2022/10/30 01:01:15;;;;;;;;;;;;;;;;;;4965117;28;19918;-56
2022/10/30 01:03:40;;;;;;;;;;;;;;;;;;4963787;28;20004;-56
2022/10/30 01:06:08;;;;;;;;;;;;;;;;;;4964899;28;19918;-57
2022/10/30 01:08:34;;;;;;;;;;;;;;;;;;4961291;28;19963;-56
2022/10/30 01:11:01;;;;;;;;;;;;;;;;;;4965995;28;19926;-56
2022/10/30 01:13:26;;;;;;;;;;;;;;;;;;4965811;28;20499;-56
2022/10/30 01:15:52;;;;;;;;;;;;;;;;;;4964813;28;20009;-56
2022/10/30 01:18:20;;;;;;;;;;;;;;;;;;4966181;28;19925;-56
2022/10/30 01:20:48;;;;;;;;;;;;;;;;;;4964668;28;19918;-56
2022/10/30 01:23:16;;;;;;;;;;;;;;;;;;4969426;28;19930;-57
2022/10/30 01:25:47;;;;;;;;;;;;;;;;;;4967491;28;20399;-56
2022/10/30 01:28:31;;;;;;;;;;;;;;;;;;4964838;28;19926;-55
2022/10/30 01:31:03;;;;;;;;;;;;;;;;;;4975908;28;19982;-55
2022/10/30 01:33:46;;;;;;;;;;;;;;;;;;4962163;28;19918;-56
2022/10/30 01:36:24;;;;;;;;;;;;;;;;;;4967029;28;19925;-56
2022/10/30 01:38:52;;;;;;;;;;;;;;;;;;4961258;28;19922;-56
2022/10/30 01:41:17;;;;;;;;;;;;;;;;;;4962989;28;19926;-57
2022/10/30 01:43:44;;;;;;;;;;;;;;;;;;4967075;28;20288;-57
2022/10/30 01:46:36;;;;;;;;;;;;;;;;;;4966030;28;19918;-56
2022/10/30 01:49:10;;;;;;;;;;;;;;;;;;4966530;28;19977;-56
2022/10/30 01:51:58;;;;;;;;;;;;;;;;;;4961572;28;19987;-56
2022/10/30 01:54:23;;;;;;;;;;;;;;;;;;4961380;28;20396;-56
2022/10/30 01:56:51;;;;;;;;;;;;;;;;;;4967579;28;19971;-56
2022/10/30 01:59:21;;;;;;;;;;;;;;;;;;4963041;28;19930;-56
2022/10/30 02:01:46;;;;;;;;;;;;;;;;;;4964776;28;19960;-56
2022/10/30 02:04:12;;;;;;;;;;;;;;;;;;4958572;28;19966;-56
2022/10/30 02:06:38;;;;;;;;;;;;;;;;;;4969580;28;19926;-56
2022/10/30 02:09:03;;;;;;;;;;;;;;;;;;4970612;28;19925;-56
2022/10/30 02:11:30;;;;;;;;;;;;;;;;;;4969836;28;20307;-57
2022/10/30 02:13:56;;;;;;;;;;;;;;;;;;4965379;28;19925;-57
2022/10/30 02:16:22;;;;;;;;;;;;;;;;;;4968368;28;19923;-56
2022/10/30 02:18:47;;;;;;;;;;;;;;;;;;4963396;28;19945;-57
2022/10/30 02:21:12;;;;;;;;;;;;;;;;;;4968816;28;19918;-56
2022/10/30 02:23:38;;;;;;;;;;;;;;;;;;4966065;28;20436;-56
2022/10/30 02:26:03;;;;;;;;;;;;;;;;;;4962753;28;19979;-57
2022/10/30 02:28:28;;;;;;;;;;;;;;;;;;4962665;28;19923;-56
2022/10/30 02:30:54;;;;;;;;;;;;;;;;;;4966362;28;19975;-57
2022/10/30 02:33:19;;;;;;;;;;;;;;;;;;4968795;28;19918;-57
2022/10/30 02:35:44;;;;;;;;;;;;;;;;;;4967371;28;20296;-57
2022/10/30 02:38:09;;;;;;;;;;;;;;;;;;4969235;28;19923;-56
2022/10/30 02:40:35;;;;;;;;;;;;;;;;;;4969530;28;19918;-57
2022/10/30 02:43:00;;;;;;;;;;;;;;;;;;4964223;28;20020;-57
2022/10/30 02:45:25;;;;;;;;;;;;;;;;;;4966769;28;19929;-56
2022/10/30 02:47:50;;;;;;;;;;;;;;;;;;4967390;28;19925;-57
2022/10/30 02:50:16;;;;;;;;;;;;;;;;;;4965414;28;19924;-57
2022/10/30 02:52:41;;;;;;;;;;;;;;;;;;4961604;28;19918;-57
2022/10/30 02:55:06;;;;;;;;;;;;;;;;;;4959495;28;19925;-56
2022/10/30 02:57:32;;;;;;;;;;;;;;;;;;4967321;28;19918;-57
2022/10/30 02:59:58;;;;;;;;;;;;;;;;;;4960202;28;19921;-57
2022/10/30 03:02:23;;;;;;;;;;;;;;;;;;4964068;28;19928;-57
2022/10/30 03:04:48;;;;;;;;;;;;;;;;;;4967920;28;20446;-57
2022/10/30 03:07:14;;;;;;;;;;;;;;;;;;4965658;28;19929;-57
2022/10/30 03:09:39;;;;;;;;;;;;;;;;;;4964715;28;19972;-57
2022/10/30 03:12:04;;;;;;;;;;;;;;;;;;4969292;28;19918;-56
2022/10/30 03:14:29;;;;;;;;;;;;;;;;;;4965959;28;20322;-57
2022/10/30 03:16:55;;;;;;;;;;;;;;;;;;4968432;28;19964;-56
2022/10/30 03:19:20;;;;;;;;;;;;;;;;;;4957468;28;20296;-56
2022/10/30 03:21:45;;;;;;;;;;;;;;;;;;4960051;28;19964;-56
2022/10/30 03:24:11;;;;;;;;;;;;;;;;;;4971167;28;19922;-56
2022/10/30 03:26:36;;;;;;;;;;;;;;;;;;4958787;28;19926;-56
2022/10/30 03:29:01;;;;;;;;;;;;;;;;;;4966056;28;19926;-56
2022/10/30 03:31:29;;;;;;;;;;;;;;;;;;4964919;28;19937;-56
2022/10/30 03:33:54;;;;;;;;;;;;;;;;;;4962866;28;19926;-57
2022/10/30 03:36:19;;;;;;;;;;;;;;;;;;4966154;28;20410;-57
2022/10/30 03:38:44;;;;;;;;;;;;;;;;;;4962316;28;19926;-57
2022/10/30 03:41:10;;;;;;;;;;;;;;;;;;4968187;28;19933;-57
2022/10/30 03:43:35;;;;;;;;;;;;;;;;;;4959327;28;19937;-57
2022/10/30 03:46:00;;;;;;;;;;;;;;;;;;4962803;28;20373;-56
2022/10/30 03:48:26;;;;;;;;;;;;;;;;;;4962169;28;19918;-56
2022/10/30 03:50:52;;;;;;;;;;;;;;;;;;4973394;28;20392;-57
2022/10/30 03:53:17;;;;;;;;;;;;;;;;;;4967954;28;19958;-57
2022/10/30 03:55:43;;;;;;;;;;;;;;;;;;4968527;28;19918;-56
2022/10/30 03:58:08;;;;;;;;;;;;;;;;;;4965175;28;19987;-57
2022/10/30 04:00:34;;;;;;;;;;;;;;;;;;4967499;28;19918;-57
2022/10/30 04:02:59;;;;;;;;;;;;;;;;;;4966618;28;20414;-56
2022/10/30 04:05:25;;;;;;;;;;;;;;;;;;4965248;28;19922;-57
2022/10/30 04:07:54;;;;;;;;;;;;;;;;;;4961272;28;19926;-56
2022/10/30 04:10:19;;;;;;;;;;;;;;;;;;4964125;28;19922;-56
2022/10/30 04:12:45;;;;;;;;;;;;;;;;;;4962251;28;19979;-57
2022/10/30 04:15:10;;;;;;;;;;;;;;;;;;4965708;28;19933;-57
2022/10/30 04:17:37;;;;;;;;;;;;;;;;;;4960790;28;21610;-56
2022/10/30 04:20:02;;;;;;;;;;;;;;;;;;4968953;28;19927;-57
2022/10/30 04:22:28;;;;;;;;;;;;;;;;;;4971564;28;20415;-55
2022/10/30 04:24:53;;;;;;;;;;;;;;;;;;4975669;28;20017;-56
2022/10/30 04:27:19;;;;;;;;;;;;;;;;;;4967454;28;19947;-56
2022/10/30 04:29:45;;;;;;;;;;;;;;;;;;4965035;28;20383;-57
2022/10/30 04:32:11;;;;;;;;;;;;;;;;;;4967159;28;19997;-56
2022/10/30 04:34:38;;;;;;;;;;;;;;;;;;4962400;28;20009;-56
2022/10/30 04:37:03;;;;;;;;;;;;;;;;;;4960887;28;19918;-56
2022/10/30 04:39:29;;;;;;;;;;;;;;;;;;4961510;28;19923;-55
2022/10/30 04:41:54;;;;;;;;;;;;;;;;;;4967366;28;19922;-55
2022/10/30 04:44:19;;;;;;;;;;;;;;;;;;4967595;28;19917;-56
2022/10/30 04:46:45;;;;;;;;;;;;;;;;;;4963045;28;19918;-56
2022/10/30 04:49:10;;;;;;;;;;;;;;;;;;4974175;28;19925;-56
2022/10/30 04:51:35;;;;;;;;;;;;;;;;;;4966006;28;19925;-56
2022/10/30 04:54:00;;;;;;;;;;;;;;;;;;4969870;28;20343;-56
2022/10/30 04:56:26;;;;;;;;;;;;;;;;;;4968289;28;19988;-56
2022/10/30 04:58:52;;;;;;;;;;;;;;;;;;4967543;28;19930;-56
2022/10/30 05:01:17;;;;;;;;;;;;;;;;;;4961517;28;19926;-56
2022/10/30 05:03:43;;;;;;;;;;;;;;;;;;4965906;28;19922;-57
2022/10/30 05:06:15;;;;;;;;;;;;;;;;;;4965247;28;20438;-57
2022/10/30 05:08:41;;;;;;;;;;;;;;;;;;4965041;28;19941;-57
2022/10/30 05:11:06;;;;;;;;;;;;;;;;;;4960132;28;20380;-56
2022/10/30 05:13:31;;;;;;;;;;;;;;;;;;4962522;28;19973;-57
2022/10/30 05:15:56;;;;;;;;;;;;;;;;;;4959038;28;19922;-58
2022/10/30 05:18:22;;;;;;;;;;;;;;;;;;4958368;28;19918;-58
2022/10/30 05:20:47;;;;;;;;;;;;;;;;;;4966359;28;19925;-58
2022/10/30 05:23:12;;;;;;;;;;;;;;;;;;4956996;28;19929;-57
2022/10/30 05:25:37;;;;;;;;;;;;;;;;;;4962416;28;20415;-56
2022/10/30 05:28:04;;;;;;;;;;;;;;;;;;4968391;28;19926;-57
2022/10/30 05:30:30;;;;;;;;;;;;;;;;;;4962119;28;19930;-57
2022/10/30 05:32:56;;;;;;;;;;;;;;;;;;4961143;28;19918;-56
2022/10/30 05:35:21;;;;;;;;;;;;;;;;;;4960382;28;19945;-57
2022/10/30 05:37:47;;;;;;;;;;;;;;;;;;4969374;28;19925;-57
2022/10/30 05:40:12;;;;;;;;;;;;;;;;;;4964941;28;20410;-56
2022/10/30 05:42:43;;;;;;;;;;;;;;;;;;4969155;28;19923;-56
2022/10/30 05:45:08;;;;;;;;;;;;;;;;;;4965903;28;19923;-56
2022/10/30 05:47:34;;;;;;;;;;;;;;;;;;4964051;28;19918;-58
2022/10/30 05:49:59;;;;;;;;;;;;;;;;;;4962301;28;20004;-57
2022/10/30 05:52:24;;;;;;;;;;;;;;;;;;4962694;28;19949;-57
2022/10/30 05:54:49;;;;;;;;;;;;;;;;;;4970310;28;19948;-59
2022/10/30 05:57:15;;;;;;;;;;;;;;;;;;4968061;28;20379;-58
2022/10/30 05:59:40;;;;;;;;;;;;;;;;;;4967241;28;19925;-58
2022/10/30 06:02:05;;;;;;;;;;;;;;;;;;4959125;28;19976;-59
2022/10/30 06:04:30;;;;;;;;;;;;;;;;;;4958802;28;19918;-58
2022/10/30 06:06:56;;;;;;;;;;;;;;;;;;4969444;28;19982;-58
2022/10/30 06:09:21;;;;;;;;;;;;;;;;;;4962907;28;19941;-58
2022/10/30 06:11:46;;;;;;;;;;;;;;;;;;4968893;28;19971;-58
2022/10/30 06:14:11;;;;;;;;;;;;;;;;;;4963841;28;19941;-57
2022/10/30 06:16:37;;;;;;;;;;;;;;;;;;4956761;28;20059;-57
2022/10/30 06:19:02;;;;;;;;;;;;;;;;;;4961467;28;19925;-57
2022/10/30 06:21:27;;;;;;;;;;;;;;;;;;4956530;28;20308;-57
2022/10/30 06:23:53;;;;;;;;;;;;;;;;;;4969253;28;19930;-58
2022/10/30 06:26:18;;;;;;;;;;;;;;;;;;4981336;28;19925;-58
2022/10/30 06:28:43;;;;;;;;;;;;;;;;;;4960305;28;19918;-58
2022/10/30 06:31:08;;;;;;;;;;;;;;;;;;4972069;28;19922;-58
2022/10/30 06:33:34;;;;;;;;;;;;;;;;;;4960504;28;19918;-57
2022/10/30 06:35:59;;;;;;;;;;;;;;;;;;4963836;28;19927;-57
2022/10/30 06:38:25;;;;;;;;;;;;;;;;;;4967443;28;20288;-57
2022/10/30 06:40:50;;;;;;;;;;;;;;;;;;4965294;28;19926;-58
2022/10/30 06:43:15;;;;;;;;;;;;;;;;;;4959102;28;20051;-59
2022/10/30 06:45:40;;;;;;;;;;;;;;;;;;4963590;28;20299;-58
2022/10/30 06:48:06;;;;;;;;;;;;;;;;;;4960941;28;19925;-57
2022/10/30 06:50:31;;;;;;;;;;;;;;;;;;4963193;28;19925;-58
2022/10/30 06:52:56;;;;;;;;;;;;;;;;;;4963672;28;20458;-57
2022/10/30 06:55:22;;;;;;;;;;;;;;;;;;4961718;28;19971;-59
2022/10/30 06:57:54;;;;;;;;;;;;;;;;;;4972246;28;19957;-57
2022/10/30 07:00:20;;;;;;;;;;;;;;;;;;4965583;28;20009;-59
2022/10/30 07:02:53;;;;;;;;;;;;;;;;;;4971261;28;20435;-57
2022/10/30 07:05:19;;;;;;;;;;;;;;;;;;4967381;28;19926;-59
2022/10/30 07:07:44;;;;;;;;;;;;;;;;;;4968300;28;19918;-58
2022/10/30 07:10:09;;;;;;;;;;;;;;;;;;4967500;28;19969;-57
2022/10/30 07:12:34;;;;;;;;;;;;;;;;;;4970045;28;20280;-56
2022/10/30 07:15:00;;;;;;;;;;;;;;;;;;4966111;28;19918;-57
2022/10/30 07:17:25;;;;;;;;;;;;;;;;;;4959094;28;20490;-57
2022/10/30 07:19:50;;;;;;;;;;;;;;;;;;4977350;28;20046;-58
2022/10/30 07:22:15;;;;;;;;;;;;;;;;;;4962911;28;19937;-57
2022/10/30 07:24:41;;;;;;;;;;;;;;;;;;4970084;28;19918;-57
2022/10/30 07:27:06;;;;;;;;;;;;;;;;;;4960768;28;19926;-57
2022/10/30 07:29:31;;;;;;;;;;;;;;;;;;4963241;28;19930;-57
2022/10/30 07:31:56;;;;;;;;;;;;;;;;;;4963244;28;20393;-57
2022/10/30 07:34:22;;;;;;;;;;;;;;;;;;4959691;28;20021;-57
2022/10/30 07:36:47;;;;;;;;;;;;;;;;;;4962272;28;19937;-57
2022/10/30 07:39:12;;;;;;;;;;;;;;;;;;4964816;28;19925;-57
2022/10/30 07:41:37;;;;;;;;;;;;;;;;;;4968347;28;20424;-57
2022/10/30 07:44:03;;;;;;;;;;;;;;;;;;4965528;28;20008;-57
2022/10/30 07:46:28;;;;;;;;;;;;;;;;;;4961091;28;19929;-57
2022/10/30 07:48:55;;;;;;;;;;;;;;;;;;4977332;28;19953;-58
2022/10/30 07:51:20;;;;;;;;;;;;;;;;;;4957687;28;19922;-58
2022/10/30 07:53:46;;;;;;;;;;;;;;;;;;4963298;28;19980;-58
2022/10/30 07:56:11;;;;;;;;;;;;;;;;;;4963471;28;19918;-58
2022/10/30 07:58:36;;;;;;;;;;;;;;;;;;4975150;28;19934;-57
2022/10/30 08:01:02;;;;;;;;;;;;;;;;;;4963375;28;19918;-57
2022/10/30 08:03:27;;;;;;;;;;;;;;;;;;4962200;28;19922;-57
2022/10/30 08:05:52;;;;;;;;;;;;;;;;;;4963664;28;19926;-57
2022/10/30 08:08:18;;;;;;;;;;;;;;;;;;4961310;28;19919;-56
2022/10/30 08:10:43;;;;;;;;;;;;;;;;;;4967077;28;20358;-57
2022/10/30 08:13:08;;;;;;;;;;;;;;;;;;4959643;28;19965;-57
2022/10/30 08:15:34;;;;;;;;;;;;;;;;;;4955176;28;19915;-56
2022/10/30 08:17:59;;;;;;;;;;;;;;;;;;4962660;28;20533;-57
2022/10/30 08:20:25;;;;;;;;;;;;;;;;;;4962671;28;19960;-58
2022/10/30 08:22:50;;;;;;;;;;;;;;;;;;4963389;28;19922;-53
2022/10/30 08:25:16;;;;;;;;;;;;;;;;;;4969448;28;19918;-53
2022/10/30 08:27:52;;;;;;;;;;;;;;;;;;4959707;28;19953;-58
2022/10/30 08:30:17;;;;;;;;;;;;;;;;;;4962729;28;19918;-57
2022/10/30 08:32:42;;;;;;;;;;;;;;;;;;4966395;28;20461;-56
2022/10/30 08:35:08;;;;;;;;;;;;;;;;;;4961521;28;19918;-56
2022/10/30 08:37:33;;;;;;;;;;;;;;;;;;4960934;28;19948;-56
2022/10/30 08:39:58;;;;;;;;;;;;;;;;;;4965221;28;19957;-57
2022/10/30 08:42:24;;;;;;;;;;;;;;;;;;4963376;28;19922;-57
2022/10/30 08:44:49;;;;;;;;;;;;;;;;;;4974062;28;20449;-56
2022/10/30 08:47:15;;;;;;;;;;;;;;;;;;4964028;28;19934;-55
2022/10/30 08:49:40;;;;;;;;;;;;;;;;;;4966382;28;19925;-57
2022/10/30 08:52:08;;;;;;;;;;;;;;;;;;4963515;28;19918;-57
2022/10/30 08:54:34;;;;;;;;;;;;;;;;;;4967887;28;19918;-58
2022/10/30 08:56:59;;;;;;;;;;;;;;;;;;4966468;28;19922;-57
2022/10/30 08:59:24;;;;;;;;;;;;;;;;;;4973333;28;20013;-57
2022/10/30 09:01:49;;;;;;;;;;;;;;;;;;4965299;28;19925;-57
2022/10/30 09:04:15;;;;;;;;;;;;;;;;;;4966607;28;20376;-58
2022/10/30 09:06:40;;;;;;;;;;;;;;;;;;4961442;28;19933;-57
2022/10/30 09:09:05;;;;;;;;;;;;;;;;;;4971894;28;19922;-58
2022/10/30 09:11:31;;;;;;;;;;;;;;;;;;4973287;28;19929;-57
2022/10/30 09:13:56;;;;;;;;;;;;;;;;;;4982448;28;19918;-58
2022/10/30 09:16:21;;;;;;;;;;;;;;;;;;4958887;28;19925;-58
2022/10/30 09:18:47;;;;;;;;;;;;;;;;;;4957923;28;19919;-57
2022/10/30 09:21:12;;;;;;;;;;;;;;;;;;4961083;28;19918;-57
2022/10/30 09:23:37;;;;;;;;;;;;;;;;;;4967815;28;19921;-57
2022/10/30 09:26:02;;;;;;;;;;;;;;;;;;4957514;28;19979;-57
2022/10/30 09:28:28;;;;;;;;;;;;;;;;;;4961132;28;19941;-57
2022/10/30 09:30:55;;;;;;;;;;;;;;;;;;4959944;28;19930;-58
2022/10/30 09:33:20;;;;;;;;;;;;;;;;;;4959526;28;20482;-60
2022/10/30 09:35:46;;;;;;;;;;;;;;;;;;4958830;28;19924;-59
2022/10/30 09:38:11;;;;;;;;;;;;;;;;;;4962116;28;19965;-59
2022/10/30 09:40:43;;;;;;;;;;;;;;;;;;4953203;28;19918;-60
2022/10/30 09:43:33;;;;;;;;;;;;;;;;;;4966071;28;19926;-58
2022/10/30 09:46:20;;;;;;;;;;;;;;;;;;4963165;28;19918;-58
2022/10/30 09:49:04;;;;;;;;;;;;;;;;;;4959287;28;19918;-58
2022/10/30 09:51:58;;;;;;;;;;;;;;;;;;4957458;28;19949;-58
2022/10/30 09:54:35;;;;;;;;;;;;;;;;;;4961821;28;19919;-59
2022/10/30 09:57:19;;;;;;;;;;;;;;;;;;4963809;28;19965;-59
2022/10/30 09:59:54;;;;;;;;;;;;;;;;;;4964806;28;19925;-59
2022/10/30 10:02:31;;;;;;;;;;;;;;;;;;4958332;28;19926;-59
2022/10/30 10:04:58;;;;;;;;;;;;;;;;;;4963710;28;20444;-59
2022/10/30 10:07:24;;;;;;;;;;;;;;;;;;4965132;28;19918;-59
2022/10/30 10:09:52;;;;;;;;;;;;;;;;;;4957587;28;19922;-60
2022/10/30 10:12:20;;;;;;;;;;;;;;;;;;4959408;28;20004;-59
2022/10/30 10:14:47;;;;;;;;;;;;;;;;;;4967565;28;19917;-59
2022/10/30 10:17:15;;;;;;;;;;;;;;;;;;4983663;28;19957;-60
2022/10/30 10:19:46;;;;;;;;;;;;;;;;;;4978682;28;19923;-59
2022/10/30 10:22:25;;;;;;;;;;;;;;;;;;4960062;28;19922;-59
2022/10/30 10:24:51;;;;;;;;;;;;;;;;;;4964448;28;20346;-59
2022/10/30 10:27:20;;;;;;;;;;;;;;;;;;4960405;28;19972;-59
2022/10/30 10:29:54;;;;;;;;;;;;;;;;;;4956055;28;20040;-59
2022/10/30 10:32:31;;;;;;;;;;;;;;;;;;4964518;28;19990;-59
2022/10/30 10:35:08;;;;;;;;;;;;;;;;;;4959244;28;19918;-59
2022/10/30 10:37:39;;;;;;;;;;;;;;;;;;4965304;28;19918;-59
2022/10/30 10:40:07;;;;;;;;;;;;;;;;;;4968121;28;19918;-59
2022/10/30 10:42:42;;;;;;;;;;;;;;;;;;4962526;28;19930;-59
2022/10/30 10:45:20;;;;;;;;;;;;;;;;;;4967564;28;19981;-60
2022/10/30 10:48:08;;;;;;;;;;;;;;;;;;4965434;28;20295;-59
2022/10/30 10:50:36;;;;;;;;;;;;;;;;;;4966446;28;20451;-60
2022/10/30 10:53:02;;;;;;;;;;;;;;;;;;4960126;28;19918;-59
2022/10/30 10:55:30;;;;;;;;;;;;;;;;;;4962936;28;19919;-60
2022/10/30 10:57:57;;;;;;;;;;;;;;;;;;4963677;28;19925;-59
2022/10/30 11:00:24;;;;;;;;;;;;;;;;;;4963482;28;19918;-60
2022/10/30 11:02:49;;;;;;;;;;;;;;;;;;4961901;28;19933;-59
2022/10/30 11:05:18;;;;;;;;;;;;;;;;;;4964105;28;19918;-59
2022/10/30 11:07:46;;;;;;;;;;;;;;;;;;4965877;28;19918;-60
2022/10/30 11:10:13;;;;;;;;;;;;;;;;;;4956424;28;19926;-59
2022/10/30 11:12:38;;;;;;;;;;;;;;;;;;4959641;28;20001;-60
2022/10/30 11:15:19;;;;;;;;;;;;;;;;;;4968904;28;20016;-59
2022/10/30 11:17:49;;;;;;;;;;;;;;;;;;4966687;28;19918;-59
2022/10/30 11:20:19;;;;;;;;;;;;;;;;;;4957843;28;19925;-59
2022/10/30 11:22:49;;;;;;;;;;;;;;;;;;4956112;28;19923;-59
2022/10/30 11:25:24;;;;;;;;;;;;;;;;;;4960394;28;19922;-59
2022/10/30 11:27:56;;;;;;;;;;;;;;;;;;4970348;28;20005;-59
2022/10/30 11:30:23;;;;;;;;;;;;;;;;;;4956429;28;19965;-60
2022/10/30 11:32:49;;;;;;;;;;;;;;;;;;4958824;28;19988;-60
2022/10/30 11:35:16;;;;;;;;;;;;;;;;;;4966109;28;20358;-60
2022/10/30 11:37:42;;;;;;;;;;;;;;;;;;4966943;28;19918;-60
2022/10/30 11:40:10;;;;;;;;;;;;;;;;;;4963641;28;19949;-60
2022/10/30 11:42:40;;;;;;;;;;;;;;;;;;4966297;28;20444;-60
2022/10/30 11:45:13;;;;;;;;;;;;;;;;;;4969348;28;20009;-60
2022/10/30 11:47:38;;;;;;;;;;;;;;;;;;4964840;28;19953;-60
2022/10/30 11:50:05;;;;;;;;;;;;;;;;;;4964053;28;20387;-60
2022/10/30 11:52:35;;;;;;;;;;;;;;;;;;4958370;28;19954;-60
2022/10/30 11:55:01;;;;;;;;;;;;;;;;;;4973719;28;20087;-60
2022/10/30 11:57:30;;;;;;;;;;;;;;;;;;4961028;28;20419;-60
2022/10/30 11:59:55;;;;;;;;;;;;;;;;;;4961172;28;19919;-59
2022/10/30 12:02:21;;;;;;;;;;;;;;;;;;4961445;28;19933;-61
2022/10/30 12:04:46;;;;;;;;;;;;;;;;;;4963023;28;19932;-59
2022/10/30 12:07:28;;;;;;;;;;;;;;;;;;4959604;28;19930;-59
2022/10/30 12:09:53;;;;;;;;;;;;;;;;;;4964169;28;19922;-61
2022/10/30 12:12:19;;;;;;;;;;;;;;;;;;4956899;28;20006;-61
2022/10/30 12:14:44;;;;;;;;;;;;;;;;;;4962775;28;19929;-61
2022/10/30 12:17:12;;;;;;;;;;;;;;;;;;4969805;28;19921;-60
2022/10/30 12:19:44;;;;;;;;;;;;;;;;;;4958606;28;20018;-60
2022/10/30 12:22:09;;;;;;;;;;;;;;;;;;4974121;28;20134;-60
2022/10/30 12:24:35;;;;;;;;;;;;;;;;;;4963076;28;19923;-60
2022/10/30 12:27:05;;;;;;;;;;;;;;;;;;4957413;28;19926;-60
2022/10/30 12:29:52;;;;;;;;;;;;;;;;;;4963793;28;19997;-60
2022/10/30 12:32:19;;;;;;;;;;;;;;;;;;4965458;28;19917;-60
2022/10/30 12:34:48;;;;;;;;;;;;;;;;;;4972704;28;19922;-60
2022/10/30 12:37:23;;;;;;;;;;;;;;;;;;4966954;28;20029;-60
2022/10/30 12:39:57;;;;;;;;;;;;;;;;;;4968822;28;20445;-60
2022/10/30 12:42:23;;;;;;;;;;;;;;;;;;4966424;28;20418;-60
2022/10/30 12:44:54;;;;;;;;;;;;;;;;;;4963937;28;19965;-60
2022/10/30 12:47:30;;;;;;;;;;;;;;;;;;4971176;28;19922;-60
2022/10/30 12:50:00;;;;;;;;;;;;;;;;;;4958730;28;19918;-60
2022/10/30 12:52:34;;;;;;;;;;;;;;;;;;4963908;28;20402;-60
2022/10/30 12:55:12;;;;;;;;;;;;;;;;;;4969378;28;20013;-60
2022/10/30 12:57:46;;;;;;;;;;;;;;;;;;4960573;28;19918;-60
2022/10/30 13:00:16;;;;;;;;;;;;;;;;;;4960415;28;19930;-60
2022/10/30 13:02:41;;;;;;;;;;;;;;;;;;4967264;28;19933;-60
2022/10/30 13:05:20;;;;;;;;;;;;;;;;;;4964618;28;20568;-59
2022/10/30 13:07:49;;;;;;;;;;;;;;;;;;4967103;28;19918;-60
2022/10/30 13:10:30;;;;;;;;;;;;;;;;;;4957873;28;19918;-60
2022/10/30 13:13:00;;;;;;;;;;;;;;;;;;4961336;28;19975;-60
2022/10/30 13:15:26;;;;;;;;;;;;;;;;;;4959664;28;19918;-60
2022/10/30 13:17:51;;;;;;;;;;;;;;;;;;4967661;28;20395;-60
2022/10/30 13:20:17;;;;;;;;;;;;;;;;;;4959738;28;19925;-60
2022/10/30 13:22:55;;;;;;;;;;;;;;;;;;4959360;28;20380;-60
2022/10/30 13:25:23;;;;;;;;;;;;;;;;;;4960596;28;20017;-60
2022/10/30 13:27:52;;;;;;;;;;;;;;;;;;4959607;28;19930;-60
2022/10/30 13:30:19;;;;;;;;;;;;;;;;;;4962887;28;19988;-60
2022/10/30 13:32:57;;;;;;;;;;;;;;;;;;4968448;28;19922;-60
2022/10/30 13:35:25;;;;;;;;;;;;;;;;;;4963643;28;20017;-60
2022/10/30 13:37:56;;;;;;;;;;;;;;;;;;4964692;28;19922;-60
2022/10/30 13:40:42;;;;;;;;;;;;;;;;;;4965000;28;19918;-60
2022/10/30 13:43:14;;;;;;;;;;;;;;;;;;5050875;28;20432;-60
2022/10/30 13:45:45;;;;;;;;;;;;;;;;;;4962479;28;19918;-60
2022/10/30 13:48:35;;;;;;;;;;;;;;;;;;4964135;28;19918;-60
2022/10/30 13:51:01;;;;;;;;;;;;;;;;;;4978132;28;20000;-60
2022/10/30 13:53:27;;;;;;;;;;;;;;;;;;4967589;28;19994;-60
2022/10/30 13:55:54;;;;;;;;;;;;;;;;;;4961794;28;20009;-60
2022/10/30 13:58:40;;;;;;;;;;;;;;;;;;4965796;28;19918;-60
2022/10/30 14:01:06;;;;;;;;;;;;;;;;;;4967073;28;19918;-60
2022/10/30 14:03:43;;;;;;;;;;;;;;;;;;4959288;28;19923;-60
2022/10/30 14:06:08;;;;;;;;;;;;;;;;;;4964250;28;20376;-60
2022/10/30 14:08:57;;;;;;;;;;;;;;;;;;4965458;28;19921;-60
2022/10/30 14:11:22;;;;;;;;;;;;;;;;;;4956956;28;19918;-60
2022/10/30 14:13:54;;;;;;;;;;;;;;;;;;4958247;28;19933;-60
2022/10/30 14:16:31;;;;;;;;;;;;;;;;;;4960121;28;20015;-60
2022/10/30 14:19:07;;;;;;;;;;;;;;;;;;4959631;28;19960;-60
2022/10/30 14:21:38;;;;;;;;;;;;;;;;;;4961450;28;19922;-60
2022/10/30 14:24:12;;;;;;;;;;;;;;;;;;4962026;28;20323;-59
2022/10/30 14:26:39;;;;;;;;;;;;;;;;;;4961366;28;19914;-60
2022/10/30 14:29:23;;;;;;;;;;;;;;;;;;4956625;28;20051;-60
2022/10/30 14:31:48;;;;;;;;;;;;;;;;;;4959682;28;19961;-59
2022/10/30 14:34:32;;;;;;;;;;;;;;;;;;4958660;28;19968;-60
2022/10/30 14:36:58;;;;;;;;;;;;;;;;;;4966168;28;19922;-60
2022/10/30 14:39:27;;;;;;;;;;;;;;;;;;4961273;28;19918;-59
2022/10/30 14:42:07;;;;;;;;;;;;;;;;;;4960332;28;19922;-60
2022/10/30 14:44:35;;;;;;;;;;;;;;;;;;4964498;28;19965;-60
2022/10/30 14:47:19;;;;;;;;;;;;;;;;;;4960828;28;19925;-59
2022/10/30 14:49:52;;;;;;;;;;;;;;;;;;4970268;28;19926;-60
2022/10/30 14:52:27;;;;;;;;;;;;;;;;;;4965339;28;19976;-59
2022/10/30 14:55:00;;;;;;;;;;;;;;;;;;4965526;28;20333;-59
2022/10/30 14:57:46;;;;;;;;;;;;;;;;;;4969400;28;19953;-59
2022/10/30 15:00:20;;;;;;;;;;;;;;;;;;4959918;28;19925;-59
2022/10/30 15:02:56;;;;;;;;;;;;;;;;;;4960585;28;20530;-59
2022/10/30 15:05:22;;;;;;;;;;;;;;;;;;4962378;28;19925;-59
2022/10/30 15:07:52;;;;;;;;;;;;;;;;;;4955394;28;20294;-59
2022/10/30 15:10:38;;;;;;;;;;;;;;;;;;4955067;28;19930;-59
2022/10/30 15:13:04;;;;;;;;;;;;;;;;;;4956748;28;20044;-59
2022/10/30 15:15:29;;;;;;;;;;;;;;;;;;4959262;28;20490;-59
2022/10/30 15:17:56;;;;;;;;;;;;;;;;;;4960690;28;20328;-59
2022/10/30 15:20:30;;;;;;;;;;;;;;;;;;4960808;28;19918;-59
2022/10/30 15:23:02;;;;;;;;;;;;;;;;;;4957382;28;19930;-59
2022/10/30 15:25:32;;;;;;;;;;;;;;;;;;4960667;28;20012;-59
2022/10/30 15:27:57;;;;;;;;;;;;;;;;;;4957221;28;19926;-59
2022/10/30 15:30:24;;;;;;;;;;;;;;;;;;4961669;28;19925;-59
2022/10/30 15:32:49;;;;;;;;;;;;;;;;;;4962906;28;19918;-59
2022/10/30 15:35:19;;;;;;;;;;;;;;;;;;4962857;28;19918;-59
2022/10/30 15:37:56;;;;;;;;;;;;;;;;;;4963279;28;19918;-59
2022/10/30 15:40:22;;;;;;;;;;;;;;;;;;4961073;28;20648;-59
2022/10/30 15:42:47;;;;;;;;;;;;;;;;;;4966797;28;20005;-59
2022/10/30 15:45:21;;;;;;;;;;;;;;;;;;4965728;28;20387;-59
2022/10/30 15:47:47;;;;;;;;;;;;;;;;;;4961168;28;20341;-59
2022/10/30 15:50:14;;;;;;;;;;;;;;;;;;4974134;28;20012;-59
2022/10/30 15:52:41;;;;;;;;;;;;;;;;;;4958923;28;20296;-59
2022/10/30 15:55:08;;;;;;;;;;;;;;;;;;4961057;28;20009;-59
2022/10/30 15:57:33;;;;;;;;;;;;;;;;;;4963842;28;19922;-59
2022/10/30 16:00:00;;;;;;;;;;;;;;;;;;4959740;28;19944;-59
2022/10/30 16:02:25;;;;;;;;;;;;;;;;;;4962208;28;19924;-59
2022/10/30 16:04:51;;;;;;;;;;;;;;;;;;4963324;28;19925;-59
2022/10/30 16:07:16;;;;;;;;;;;;;;;;;;4969438;28;19918;-59
2022/10/30 16:09:50;;;;;;;;;;;;;;;;;;4961499;28;19919;-59
2022/10/30 16:12:15;;;;;;;;;;;;;;;;;;4961828;28;19918;-59
2022/10/30 16:14:41;;;;;;;;;;;;;;;;;;4964369;28;20016;-59
2022/10/30 16:17:09;;;;;;;;;;;;;;;;;;4961690;28;20017;-59
2022/10/30 16:19:38;;;;;;;;;;;;;;;;;;4968449;28;19918;-59
2022/10/30 16:22:03;;;;;;;;;;;;;;;;;;4961396;28;20367;-59
2022/10/30 16:24:33;;;;;;;;;;;;;;;;;;4967138;28;20000;-60
2022/10/30 16:27:18;;;;;;;;;;;;;;;;;;4959561;28;19926;-59
2022/10/30 16:29:51;;;;;;;;;;;;;;;;;;4956434;28;19925;-58
2022/10/30 16:32:18;;;;;;;;;;;;;;;;;;4965678;28;19918;-59
2022/10/30 16:34:44;;;;;;;;;;;;;;;;;;4962508;28;19925;-59
2022/10/30 16:37:30;;;;;;;;;;;;;;;;;;4967935;28;19922;-59
2022/10/30 16:39:55;;;;;;;;;;;;;;;;;;4962623;28;20005;-59
2022/10/30 16:42:22;;;;;;;;;;;;;;;;;;4961778;28;20383;-59
2022/10/30 16:44:47;;;;;;;;;;;;;;;;;;4967071;28;19972;-59
2022/10/30 16:47:15;;;;;;;;;;;;;;;;;;4963603;28;19926;-59
2022/10/30 16:49:43;;;;;;;;;;;;;;;;;;4973296;28;19946;-59
2022/10/30 16:52:11;;;;;;;;;;;;;;;;;;4967684;28;19926;-59